createdAt,value
2017-09-07T00:02:15.427Z,67.10
2017-09-07T00:04:42.883Z,67.20
2017-09-07T00:07:10.330Z,67.30
2017-09-07T00:09:37.827Z,67.30
2017-09-07T00:12:05.380Z,67.40
2017-09-07T00:14:32.821Z,67.50
2017-09-07T00:17:00.296Z,67.50
2017-09-07T00:19:27.780Z,67.60
2017-09-07T00:21:55.240Z,67.70
2017-09-07T00:24:22.887Z,67.80
2017-09-07T00:26:50.334Z,68.10
2017-09-07T00:29:17.786Z,68.20
2017-09-07T00:31:45.497Z,68.30
2017-09-07T00:34:13.052Z,68.60
2017-09-07T00:36:40.498Z,68.60
2017-09-07T00:39:08.194Z,68.60
2017-09-07T00:41:35.746Z,68.60
2017-09-07T00:44:03.194Z,68.60
2017-09-07T00:46:31.186Z,68.60
2017-09-07T00:48:58.794Z,68.50
2017-09-07T00:51:26.226Z,68.60
2017-09-07T00:53:53.723Z,68.60
2017-09-07T00:56:21.185Z,68.60
2017-09-07T00:58:48.625Z,68.70
2017-09-07T01:01:17.588Z,68.90
2017-09-07T01:03:45.022Z,68.80
2017-09-07T01:06:12.442Z,68.80
2017-09-07T01:08:39.955Z,68.60
2017-09-07T01:11:07.393Z,68.60
2017-09-07T01:13:34.832Z,68.70
2017-09-07T01:16:02.304Z,68.70
2017-09-07T01:18:29.749Z,68.70
2017-09-07T01:20:57.286Z,68.80
2017-09-07T01:23:24.884Z,68.80
2017-09-07T01:25:52.326Z,68.70
2017-09-07T01:28:19.759Z,68.70
2017-09-07T01:30:47.246Z,68.70
2017-09-07T01:33:14.694Z,68.60
2017-09-07T01:35:42.157Z,68.60
2017-09-07T01:38:11.358Z,68.60
2017-09-07T01:40:38.837Z,68.50
2017-09-07T01:43:06.286Z,68.60
2017-09-07T01:45:33.718Z,68.50
2017-09-07T02:02:03.625Z,68.20
2017-09-07T02:04:31.893Z,68.20
2017-09-07T02:06:59.338Z,68.10
2017-09-07T02:09:26.804Z,68.10
2017-09-07T02:11:54.230Z,68.00
2017-09-07T02:14:21.675Z,68.00
2017-09-07T02:16:49.316Z,68.00
2017-09-07T02:19:16.766Z,67.70
2017-09-07T02:21:44.224Z,67.70
2017-09-07T02:24:11.703Z,67.70
2017-09-07T02:26:39.846Z,67.70
2017-09-07T02:29:07.295Z,67.70
2017-09-07T02:31:36.389Z,67.70
2017-09-07T02:34:03.832Z,67.70
2017-09-07T02:36:31.274Z,67.70
2017-09-07T02:38:59.475Z,67.70
2017-09-07T02:41:27.334Z,67.70
2017-09-07T02:43:54.784Z,67.70
2017-09-07T02:46:22.246Z,67.70
2017-09-07T02:48:49.704Z,67.90
2017-09-07T02:51:17.142Z,67.70
2017-09-07T02:53:45.454Z,67.70
2017-09-07T02:56:12.950Z,67.90
2017-09-07T02:58:40.799Z,68.10
2017-09-07T03:01:09.058Z,68.00
2017-09-07T03:03:36.661Z,68.40
2017-09-07T03:06:04.171Z,68.50
2017-09-07T03:08:31.657Z,68.80
2017-09-07T03:10:59.090Z,68.80
2017-09-07T03:13:26.518Z,68.80
2017-09-07T03:15:54.120Z,68.90
2017-09-07T03:18:21.568Z,69.00
2017-09-07T03:20:49.007Z,69.10
2017-09-07T03:23:16.610Z,69.10
2017-09-07T03:25:44.071Z,69.00
2017-09-07T03:28:12.564Z,69.10
2017-09-07T03:30:40.111Z,69.10
2017-09-07T03:33:07.591Z,69.10
2017-09-07T03:35:35.059Z,69.10
2017-09-07T03:38:02.533Z,69.20
2017-09-07T03:40:30.393Z,69.20
2017-09-07T03:42:57.846Z,69.10
2017-09-07T03:45:25.316Z,69.20
2017-09-07T03:47:52.844Z,69.30
2017-09-07T03:50:20.350Z,69.30
2017-09-07T03:52:48.249Z,69.30
2017-09-07T03:55:16.620Z,69.30
2017-09-07T03:57:44.059Z,69.50
2017-09-07T04:00:11.513Z,69.60
2017-09-07T04:02:39.086Z,69.60
2017-09-07T04:05:06.510Z,69.70
2017-09-07T04:07:33.981Z,69.60
2017-09-07T04:10:01.417Z,69.60
2017-09-07T04:12:28.842Z,69.60
2017-09-07T04:14:56.394Z,69.60
2017-09-07T04:17:23.824Z,69.60
2017-09-07T04:19:51.914Z,69.60
2017-09-07T04:22:19.377Z,69.30
2017-09-07T04:24:46.805Z,69.20
2017-09-07T04:27:14.238Z,69.20
2017-09-07T04:29:41.699Z,69.10
2017-09-07T04:32:09.108Z,69.10
2017-09-07T04:34:36.557Z,69.20
2017-09-07T04:37:04.030Z,69.20
2017-09-07T04:39:31.626Z,69.10
2017-09-07T04:41:59.384Z,69.10
2017-09-07T04:44:26.853Z,69.10
2017-09-07T04:46:54.286Z,69.00
2017-09-07T04:49:21.731Z,69.00
2017-09-07T04:51:49.464Z,69.00
2017-09-07T04:54:16.993Z,68.90
2017-09-07T04:56:44.413Z,68.90
2017-09-07T04:59:12.456Z,68.80
2017-09-07T05:01:39.904Z,68.80
2017-09-07T05:04:07.323Z,68.80
2017-09-07T05:06:34.771Z,68.90
2017-09-07T05:09:02.274Z,69.00
2017-09-07T05:11:29.752Z,68.80
2017-09-07T05:13:57.234Z,68.70
2017-09-07T05:16:24.674Z,68.70
2017-09-07T05:18:52.119Z,68.70
2017-09-07T05:21:19.598Z,68.90
2017-09-07T05:23:47.056Z,68.70
2017-09-07T05:26:14.512Z,68.80
2017-09-07T05:28:42.365Z,68.80
2017-09-07T05:31:09.787Z,68.60
2017-09-07T05:33:37.235Z,68.70
2017-09-07T05:36:04.747Z,68.70
2017-09-07T05:38:32.175Z,68.70
2017-09-07T05:40:59.631Z,68.70
2017-09-07T05:43:27.248Z,68.60
2017-09-07T05:45:54.820Z,68.80
2017-09-07T05:48:22.245Z,68.80
2017-09-07T05:50:49.682Z,68.80
2017-09-07T05:53:17.127Z,68.70
2017-09-07T05:55:44.603Z,68.70
2017-09-07T05:58:12.038Z,68.60
2017-09-07T06:00:39.515Z,68.70
2017-09-07T06:03:06.992Z,68.80
2017-09-07T06:05:34.414Z,68.80
2017-09-07T06:08:01.851Z,68.60
2017-09-07T06:10:29.356Z,68.60
2017-09-07T06:12:57.043Z,68.70
2017-09-07T06:15:24.480Z,68.40
2017-09-07T06:17:52.080Z,68.40
2017-09-07T06:20:19.534Z,68.20
2017-09-07T06:22:46.967Z,68.20
2017-09-07T06:25:14.423Z,68.30
2017-09-07T06:27:41.914Z,68.20
2017-09-07T06:30:09.376Z,68.10
2017-09-07T06:32:37.943Z,67.90
2017-09-07T06:35:05.403Z,68.00
2017-09-07T06:37:32.811Z,67.70
2017-09-07T06:40:00.676Z,67.70
2017-09-07T06:42:28.103Z,67.70
2017-09-07T06:44:55.524Z,67.70
2017-09-07T06:49:57.129Z,67.60
2017-09-07T06:52:24.819Z,67.30
2017-09-07T06:54:52.261Z,67.50
2017-09-07T06:57:19.708Z,67.40
2017-09-07T06:59:47.197Z,67.60
2017-09-07T07:02:14.647Z,67.70
2017-09-07T07:04:42.081Z,67.50
2017-09-07T07:07:09.803Z,67.10
2017-09-07T07:09:37.223Z,67.40
2017-09-07T07:12:04.688Z,67.20
2017-09-07T07:14:32.182Z,67.10
2017-09-07T07:16:59.627Z,67.10
2017-09-07T07:19:27.206Z,67.30
2017-09-07T07:21:54.659Z,67.20
2017-09-07T07:24:23.144Z,67.10
2017-09-07T07:26:50.594Z,67.00
2017-09-07T07:29:18.161Z,66.90
2017-09-07T07:31:45.598Z,67.20
2017-09-07T07:34:13.033Z,67.20
2017-09-07T07:36:40.494Z,67.10
2017-09-07T07:39:08.357Z,66.90
2017-09-07T07:41:35.788Z,66.90
2017-09-07T07:44:03.418Z,66.70
2017-09-07T07:46:30.840Z,66.90
2017-09-07T07:48:58.388Z,66.70
2017-09-07T07:51:25.922Z,66.90
2017-09-07T07:53:53.419Z,66.90
2017-09-07T07:56:20.851Z,66.20
2017-09-07T07:58:48.341Z,65.80
2017-09-07T08:01:15.772Z,65.60
2017-09-07T08:03:43.229Z,65.40
2017-09-07T08:06:11.248Z,65.00
2017-09-07T08:08:38.731Z,65.00
2017-09-07T08:11:06.192Z,64.60
2017-09-07T08:13:33.939Z,65.00
2017-09-07T08:16:01.474Z,64.70
2017-09-07T08:18:28.949Z,64.50
2017-09-07T08:20:56.491Z,63.90
2017-09-07T08:23:23.966Z,63.50
2017-09-07T08:25:51.414Z,64.10
2017-09-07T08:28:20.848Z,64.10
2017-09-07T08:30:48.272Z,64.20
2017-09-07T08:33:15.937Z,63.90
2017-09-07T08:35:43.439Z,63.60
2017-09-07T08:38:10.884Z,63.30
2017-09-07T08:40:38.358Z,63.50
2017-09-07T08:43:05.858Z,62.90
2017-09-07T08:45:33.721Z,63.30
2017-09-07T08:48:01.177Z,63.30
2017-09-07T08:50:28.992Z,62.90
2017-09-07T08:52:56.428Z,62.40
2017-09-07T08:55:23.875Z,62.50
2017-09-07T08:57:51.612Z,62.60
2017-09-07T09:00:19.061Z,62.80
2017-09-07T09:02:46.535Z,62.80
2017-09-07T09:05:14.187Z,62.30
2017-09-07T09:07:41.631Z,62.40
2017-09-07T09:10:09.098Z,62.00
2017-09-07T09:12:36.539Z,61.70
2017-09-07T09:15:04.012Z,61.10
2017-09-07T09:17:31.466Z,61.30
2017-09-07T09:19:58.897Z,60.20
2017-09-07T09:22:26.946Z,60.60
2017-09-07T09:24:54.388Z,59.60
2017-09-07T09:27:21.824Z,59.20
2017-09-07T09:29:49.303Z,58.50
2017-09-07T09:32:16.747Z,58.70
2017-09-07T09:34:44.228Z,58.00
2017-09-07T09:37:11.972Z,57.60
2017-09-07T09:39:39.512Z,57.10
2017-09-07T09:42:07.867Z,56.40
2017-09-07T09:44:35.379Z,56.30
2017-09-07T09:47:02.843Z,56.00
2017-09-07T09:49:30.351Z,56.20
2017-09-07T09:51:57.846Z,57.00
2017-09-07T09:54:25.287Z,57.20
2017-09-07T09:56:52.744Z,56.80
2017-09-07T09:59:21.056Z,56.80
2017-09-07T10:01:48.646Z,56.50
2017-09-07T10:04:16.558Z,56.40
2017-09-07T10:06:44.025Z,56.40
2017-09-07T10:09:11.445Z,55.00
2017-09-07T10:11:38.940Z,55.30
2017-09-07T10:14:06.462Z,55.70
2017-09-07T10:16:33.900Z,55.40
2017-09-07T10:19:01.420Z,55.50
2017-09-07T10:21:28.831Z,55.70
2017-09-07T10:23:56.283Z,55.50
2017-09-07T10:26:23.765Z,55.80
2017-09-07T10:28:51.610Z,55.70
2017-09-07T10:31:19.032Z,55.70
2017-09-07T10:33:46.518Z,55.50
2017-09-07T10:36:13.971Z,55.60
2017-09-07T10:38:41.424Z,54.70
2017-09-07T10:41:08.906Z,55.20
2017-09-07T10:43:36.390Z,55.50
2017-09-07T10:46:03.914Z,55.90
2017-09-07T10:48:31.547Z,56.10
2017-09-07T10:50:59.007Z,56.60
2017-09-07T10:53:26.451Z,56.30
2017-09-07T10:55:53.968Z,56.00
2017-09-07T10:58:21.540Z,56.10
2017-09-07T11:00:49.042Z,55.90
2017-09-07T11:03:16.526Z,55.10
2017-09-07T11:05:44.363Z,54.70
2017-09-07T11:08:11.839Z,54.70
2017-09-07T11:10:39.426Z,53.50
2017-09-07T11:13:06.972Z,53.30
2017-09-07T11:15:34.924Z,51.20
2017-09-07T11:18:02.997Z,51.20
2017-09-07T11:20:30.560Z,51.90
2017-09-07T11:22:58.501Z,51.00
2017-09-07T11:25:26.357Z,51.60
2017-09-07T11:27:53.908Z,52.50
2017-09-07T11:30:21.349Z,51.80
2017-09-07T11:32:49.018Z,51.60
2017-09-07T11:35:16.886Z,52.80
2017-09-07T11:37:44.416Z,52.80
2017-09-07T11:40:11.978Z,52.80
2017-09-07T11:42:39.411Z,53.70
2017-09-07T11:45:06.904Z,54.00
2017-09-07T11:47:34.596Z,54.60
2017-09-07T11:50:02.063Z,53.70
2017-09-07T11:52:29.511Z,54.10
2017-09-07T11:54:57.023Z,54.00
2017-09-07T11:57:24.459Z,54.00
2017-09-07T11:59:51.920Z,54.20
2017-09-07T12:02:19.418Z,54.00
2017-09-07T12:04:46.881Z,54.20
2017-09-07T12:07:14.355Z,53.90
2017-09-07T12:09:42.052Z,53.70
2017-09-07T12:12:09.549Z,54.00
2017-09-07T12:14:37.412Z,54.20
2017-09-07T12:17:04.905Z,54.20
2017-09-07T12:19:32.477Z,54.50
2017-09-07T12:22:00.112Z,54.40
2017-09-07T12:24:27.831Z,54.80
2017-09-07T12:26:55.295Z,54.90
2017-09-07T12:29:22.760Z,55.00
2017-09-07T12:31:51.790Z,54.60
2017-09-07T12:34:19.245Z,55.00
2017-09-07T12:36:46.712Z,54.40
2017-09-07T12:39:14.215Z,54.10
2017-09-07T12:41:41.747Z,53.20
2017-09-07T12:44:09.217Z,50.40
2017-09-07T12:46:36.967Z,50.50
2017-09-07T12:49:04.514Z,51.10
2017-09-07T12:51:31.973Z,50.20
2017-09-07T12:53:59.446Z,51.20
2017-09-07T12:56:26.866Z,50.90
2017-09-07T12:58:54.483Z,50.70
2017-09-07T13:01:22.509Z,50.40
2017-09-07T13:03:50.019Z,50.40
2017-09-07T13:06:17.461Z,49.90
2017-09-07T13:08:45.406Z,50.40
2017-09-07T13:11:12.842Z,50.80
2017-09-07T13:13:40.320Z,50.20
2017-09-07T13:16:07.814Z,49.80
2017-09-07T13:18:35.293Z,49.60
2017-09-07T13:21:02.750Z,50.10
2017-09-07T13:23:30.257Z,49.80
2017-09-07T13:25:57.741Z,49.60
2017-09-07T13:28:25.240Z,49.90
2017-09-07T13:30:52.767Z,49.90
2017-09-07T13:33:20.210Z,49.90
2017-09-07T13:35:47.763Z,49.20
2017-09-07T13:38:15.613Z,49.40
2017-09-07T13:40:43.055Z,49.40
2017-09-07T13:43:10.712Z,50.20
2017-09-07T13:45:38.163Z,50.10
2017-09-07T13:48:05.608Z,50.20
2017-09-07T13:50:33.150Z,50.10
2017-09-07T13:53:01.002Z,50.70
2017-09-07T13:55:28.835Z,49.90
2017-09-07T13:57:56.761Z,49.90
2017-09-07T14:00:24.213Z,49.20
2017-09-07T14:02:52.304Z,49.00
2017-09-07T14:05:20.035Z,49.60
2017-09-07T14:07:47.446Z,50.00
2017-09-07T14:10:15.083Z,48.70
2017-09-07T14:12:43.594Z,48.40
2017-09-07T14:15:11.250Z,48.80
2017-09-07T14:17:38.943Z,47.40
2017-09-07T14:20:06.446Z,47.70
2017-09-07T14:22:33.883Z,47.30
2017-09-07T14:25:01.476Z,46.80
2017-09-07T14:27:29.029Z,46.70
2017-09-07T14:29:56.746Z,46.10
2017-09-07T14:32:24.327Z,46.50
2017-09-07T14:34:53.555Z,45.90
2017-09-07T14:37:21.222Z,45.70
2017-09-07T14:39:48.711Z,46.00
2017-09-07T14:42:16.164Z,46.20
2017-09-07T14:44:43.605Z,46.30
2017-09-07T14:47:11.236Z,46.30
2017-09-07T14:49:38.904Z,46.70
2017-09-07T14:52:06.392Z,47.00
2017-09-07T14:54:34.036Z,45.70
2017-09-07T14:57:01.796Z,46.20
2017-09-07T14:59:29.507Z,46.00
2017-09-07T15:01:57.357Z,46.20
2017-09-07T15:04:25.452Z,46.10
2017-09-07T15:06:52.990Z,46.10
2017-09-07T15:09:20.523Z,47.30
2017-09-07T15:11:50.508Z,48.20
2017-09-07T15:14:17.915Z,48.20
2017-09-07T15:16:46.015Z,48.60
2017-09-07T15:19:13.780Z,48.80
2017-09-07T15:21:41.824Z,49.10
2017-09-07T15:24:09.540Z,49.10
2017-09-07T15:26:37.008Z,48.50
2017-09-07T15:29:04.460Z,48.70
2017-09-07T15:31:31.945Z,48.40
2017-09-07T15:33:59.536Z,47.80
2017-09-07T15:36:27.005Z,48.30
2017-09-07T15:38:54.517Z,48.50
2017-09-07T15:41:21.976Z,49.20
2017-09-07T15:43:49.929Z,49.10
2017-09-07T15:46:17.435Z,49.40
2017-09-07T15:48:45.236Z,49.60
2017-09-07T15:51:13.015Z,49.60
2017-09-07T15:53:40.598Z,49.70
2017-09-07T15:56:08.175Z,49.80
2017-09-07T15:58:35.870Z,49.90
2017-09-07T16:01:03.365Z,50.20
2017-09-07T16:03:30.812Z,50.60
2017-09-07T16:05:58.438Z,50.90
2017-09-07T16:08:25.888Z,51.20
2017-09-07T16:10:53.638Z,51.00
2017-09-07T16:13:21.179Z,51.20
2017-09-07T16:15:48.642Z,51.50
2017-09-07T16:18:16.064Z,51.70
2017-09-07T16:20:43.503Z,51.80
2017-09-07T16:23:11.169Z,52.00
2017-09-07T16:25:38.645Z,52.20
2017-09-07T16:28:06.059Z,52.20
2017-09-07T16:30:33.921Z,52.60
2017-09-07T16:33:01.380Z,52.60
2017-09-07T16:35:28.857Z,52.50
2017-09-07T16:37:56.533Z,52.50
2017-09-07T16:40:23.983Z,52.50
2017-09-07T16:42:51.832Z,52.40
2017-09-07T16:45:19.306Z,52.30
2017-09-07T16:47:46.839Z,52.30
2017-09-07T16:50:14.341Z,52.40
2017-09-07T16:52:42.150Z,52.30
2017-09-07T16:55:09.595Z,52.30
2017-09-07T16:57:39.351Z,52.30
2017-09-07T17:00:06.756Z,52.30
2017-09-07T17:02:34.286Z,52.40
2017-09-07T17:05:01.717Z,52.60
2017-09-07T17:07:29.153Z,52.50
2017-09-07T17:09:56.621Z,52.60
2017-09-07T17:12:24.060Z,52.80
2017-09-07T17:14:51.553Z,52.60
2017-09-07T17:17:19.064Z,52.60
2017-09-07T17:19:46.491Z,52.70
2017-09-07T17:22:13.924Z,52.70
2017-09-07T17:24:41.420Z,52.90
2017-09-07T17:27:08.868Z,53.00
2017-09-07T17:29:36.364Z,53.20
2017-09-07T17:32:03.827Z,53.60
2017-09-07T17:34:31.252Z,53.90
2017-09-07T17:36:58.700Z,54.50
2017-09-07T17:39:26.390Z,54.80
2017-09-07T17:41:53.807Z,54.90
2017-09-07T17:44:21.636Z,55.20
2017-09-07T17:46:49.087Z,55.20
2017-09-07T17:49:16.522Z,55.50
2017-09-07T17:51:43.954Z,55.50
2017-09-07T17:54:11.403Z,55.50
2017-09-07T17:56:38.822Z,55.60
2017-09-07T17:59:06.254Z,55.70
2017-09-07T18:01:33.953Z,56.10
2017-09-07T18:04:01.393Z,56.30
2017-09-07T18:06:28.880Z,56.50
2017-09-07T18:08:56.436Z,56.50
2017-09-07T18:11:23.871Z,56.70
2017-09-07T18:13:51.316Z,56.60
2017-09-07T18:16:18.805Z,56.80
2017-09-07T18:18:46.208Z,56.90
2017-09-07T18:21:13.860Z,57.00
2017-09-07T18:23:41.312Z,57.20
2017-09-07T18:26:08.765Z,57.40
2017-09-07T18:28:36.233Z,57.40
2017-09-07T18:31:03.675Z,57.50
2017-09-07T18:33:31.107Z,57.70
2017-09-07T18:35:58.580Z,57.70
2017-09-07T18:38:26.506Z,57.70
2017-09-07T18:40:53.943Z,57.70
2017-09-07T18:43:21.387Z,57.70
2017-09-07T18:45:49.213Z,57.90
2017-09-07T18:48:16.641Z,57.90
2017-09-07T18:50:44.113Z,58.00
2017-09-07T18:53:11.702Z,57.90
2017-09-07T18:55:39.133Z,58.00
2017-09-07T18:58:06.723Z,58.20
2017-09-07T19:00:34.152Z,58.30
2017-09-07T19:03:01.577Z,58.50
2017-09-07T19:05:29.188Z,58.50
2017-09-07T19:07:56.615Z,58.60
2017-09-07T19:10:24.450Z,58.50
2017-09-07T19:12:52.220Z,58.60
2017-09-07T19:15:19.656Z,58.60
2017-09-07T19:17:47.093Z,58.60
2017-09-07T19:20:14.579Z,58.70
2017-09-07T19:22:42.068Z,58.70
2017-09-07T19:25:09.666Z,58.80
2017-09-07T19:27:37.174Z,58.90
2017-09-07T19:30:04.633Z,58.90
2017-09-07T19:32:32.057Z,58.90
2017-09-07T19:34:59.946Z,59.00
2017-09-07T19:37:27.525Z,59.00
2017-09-07T19:39:55.197Z,59.10
2017-09-07T19:42:22.664Z,59.10
2017-09-07T19:44:50.236Z,59.20
2017-09-07T19:47:18.583Z,59.30
2017-09-07T19:52:36.748Z,59.30
2017-09-07T19:55:04.177Z,59.30
2017-09-07T19:57:32.000Z,59.50
2017-09-07T19:59:59.446Z,59.50
2017-09-07T20:02:27.190Z,59.50
2017-09-07T20:04:54.580Z,59.50
2017-09-07T20:07:22.148Z,59.60
2017-09-07T20:09:50.145Z,59.70
2017-09-07T20:12:18.258Z,59.60
2017-09-07T20:14:45.719Z,59.80
2017-09-07T20:17:13.155Z,59.90
2017-09-07T20:19:40.594Z,60.00
2017-09-07T20:22:08.141Z,59.90
2017-09-07T20:24:35.785Z,60.20
2017-09-07T20:27:03.267Z,60.30
2017-09-07T20:29:31.148Z,60.30
2017-09-07T20:31:58.617Z,60.40
2017-09-07T20:34:26.043Z,60.40
2017-09-07T20:36:53.621Z,60.40
2017-09-07T20:39:21.915Z,60.40
2017-09-07T20:41:49.385Z,60.50
2017-09-07T20:47:07.730Z,60.60
2017-09-07T20:49:35.152Z,60.60
2017-09-07T20:52:02.970Z,60.60
2017-09-07T20:57:21.436Z,60.70
2017-09-07T20:59:48.870Z,60.60
2017-09-07T21:02:16.352Z,60.70
2017-09-07T21:04:44.019Z,60.90
2017-09-07T21:07:11.438Z,60.90
2017-09-07T21:09:39.282Z,61.00
2017-09-07T21:12:06.724Z,61.00
2017-09-07T21:14:34.167Z,61.00
2017-09-07T21:17:01.633Z,61.10
2017-09-07T21:22:03.034Z,61.20
2017-09-07T21:24:30.501Z,61.30
2017-09-07T21:26:57.971Z,61.40
2017-09-07T21:29:25.382Z,61.40
2017-09-07T21:31:52.846Z,61.50
2017-09-07T21:34:20.284Z,61.60
2017-09-07T21:36:47.717Z,61.60
2017-09-07T21:39:15.168Z,61.50
2017-09-07T21:41:42.980Z,61.60
2017-09-07T21:44:10.411Z,61.60
2017-09-07T21:46:38.061Z,61.70
2017-09-07T21:49:05.483Z,61.90
2017-09-07T21:51:32.942Z,61.70
2017-09-07T21:54:00.583Z,61.70
2017-09-07T21:56:28.014Z,61.70
2017-09-07T21:58:55.442Z,62.00
2017-09-07T22:01:22.895Z,62.00
2017-09-07T22:03:50.329Z,61.90
2017-09-07T22:06:18.194Z,61.90
2017-09-07T22:08:45.924Z,61.90
2017-09-07T22:11:13.375Z,61.90
2017-09-07T22:13:40.791Z,62.00
2017-09-07T22:16:08.433Z,62.00
2017-09-07T22:18:35.863Z,62.10
2017-09-07T22:21:03.295Z,62.10
2017-09-07T22:23:32.679Z,62.20
2017-09-07T22:26:00.113Z,62.10
2017-09-07T22:28:27.545Z,62.20
2017-09-07T22:30:55.019Z,62.30
2017-09-07T22:33:22.451Z,62.20
2017-09-07T22:35:49.886Z,62.10
2017-09-07T22:38:17.364Z,62.10
2017-09-07T22:40:45.194Z,61.90
2017-09-07T22:43:12.737Z,61.90
2017-09-07T22:45:40.199Z,61.90
2017-09-07T22:48:07.653Z,62.10
2017-09-07T22:50:35.077Z,62.30
2017-09-07T22:53:03.196Z,62.50
2017-09-07T22:55:30.636Z,62.50
2017-09-07T22:57:58.056Z,62.50
2017-09-07T23:00:25.536Z,62.50
2017-09-07T23:02:53.051Z,62.50
2017-09-07T23:05:20.532Z,62.50
2017-09-07T23:07:48.062Z,62.60
2017-09-07T23:10:15.517Z,62.60
2017-09-07T23:12:43.018Z,62.60
2017-09-07T23:15:10.719Z,62.80
2017-09-07T23:17:38.191Z,62.80
2017-09-07T23:20:05.787Z,62.90
2017-09-07T23:22:33.285Z,62.80
2017-09-07T23:25:00.887Z,62.80
2017-09-07T23:27:28.535Z,62.80
2017-09-07T23:29:56.052Z,63.30
2017-09-07T23:32:23.726Z,63.20
2017-09-07T23:34:51.226Z,63.00
2017-09-07T23:37:19.038Z,63.10
2017-09-07T23:39:46.518Z,63.20
2017-09-07T23:42:14.047Z,63.30
2017-09-07T23:44:41.705Z,63.40
2017-09-07T23:47:09.701Z,63.50
2017-09-07T23:49:37.170Z,63.50
2017-09-07T23:52:04.867Z,63.60
2017-09-07T23:54:32.395Z,63.70
2017-09-07T23:56:59.906Z,63.80
2017-09-07T23:59:27.496Z,63.70
